createdAt,value
2022-10-06T00:00:01.127Z,100559.31
2022-10-06T00:02:28.495Z,100574.53
2022-10-06T00:04:55.382Z,100564.75
2022-10-06T00:07:22.091Z,100598.09
2022-10-06T00:09:48.880Z,100596.00
2022-10-06T00:12:15.801Z,100594.06
2022-10-06T00:14:42.499Z,100598.16
2022-10-06T00:17:09.222Z,100593.28
2022-10-06T00:19:35.852Z,100600.47
2022-10-06T00:22:02.539Z,100593.81
2022-10-06T00:24:29.384Z,100607.94
2022-10-06T00:27:02.408Z,100614.06
2022-10-06T00:29:29.525Z,100627.16
2022-10-06T00:31:56.363Z,100627.22
2022-10-06T00:34:23.010Z,100638.56
2022-10-06T00:36:49.792Z,100637.72
2022-10-06T00:39:16.497Z,100634.16
2022-10-06T00:41:45.911Z,100626.00
2022-10-06T00:44:12.585Z,100632.09
2022-10-06T00:46:51.302Z,100644.53
2022-10-06T00:49:35.649Z,100670.31
2022-10-06T00:52:11.057Z,100671.75
2022-10-06T00:54:38.996Z,100671.16
2022-10-06T00:57:13.098Z,100665.56
2022-10-06T00:59:41.111Z,100658.00
2022-10-06T01:02:21.598Z,100672.38
2022-10-06T01:04:56.439Z,100669.16
2022-10-06T01:07:28.299Z,100685.25
2022-10-06T01:09:58.075Z,100692.03
2022-10-06T01:12:29.539Z,100713.53
2022-10-06T01:14:57.559Z,100703.34
2022-10-06T01:17:39.815Z,100697.75
2022-10-06T01:20:15.161Z,100700.97
2022-10-06T01:22:55.865Z,100683.69
2022-10-06T01:25:23.120Z,100696.06
2022-10-06T01:27:54.931Z,100701.50
2022-10-06T01:30:31.507Z,100699.44
2022-10-06T01:32:58.721Z,100710.47
2022-10-06T01:35:25.557Z,100713.69
2022-10-06T01:38:00.404Z,100711.84
2022-10-06T01:40:29.333Z,100717.44
2022-10-06T01:42:56.889Z,100729.63
2022-10-06T01:45:23.613Z,100727.22
2022-10-06T01:47:53.327Z,100739.75
2022-10-06T01:50:20.218Z,100746.75
2022-10-06T01:52:46.890Z,100750.25
2022-10-06T01:55:14.655Z,100754.31
2022-10-06T01:57:48.484Z,100755.53
2022-10-06T02:00:15.954Z,100771.28
2022-10-06T02:02:45.747Z,100766.03
2022-10-06T02:05:14.636Z,100782.44
2022-10-06T02:07:41.701Z,100792.44
2022-10-06T02:10:09.604Z,100790.25
2022-10-06T02:12:36.277Z,100808.00
2022-10-06T02:15:03.951Z,100789.56
2022-10-06T02:17:30.800Z,100800.53
2022-10-06T02:19:57.454Z,100806.53
2022-10-06T02:22:24.393Z,100800.94
2022-10-06T02:24:51.112Z,100807.81
2022-10-06T02:27:17.878Z,100812.47
2022-10-06T02:29:45.023Z,100830.47
2022-10-06T02:32:11.804Z,100825.69
2022-10-06T02:34:38.452Z,100827.47
2022-10-06T02:37:05.517Z,100852.97
2022-10-06T02:39:32.174Z,100850.28
2022-10-06T02:41:58.834Z,100842.09
2022-10-06T02:44:25.476Z,100848.44
2022-10-06T02:46:53.688Z,100849.75
2022-10-06T02:49:23.450Z,100848.94
2022-10-06T02:51:50.380Z,100855.16
2022-10-06T02:54:17.426Z,100861.06
2022-10-06T02:56:44.117Z,100869.00
2022-10-06T02:59:10.817Z,100882.66
2022-10-06T03:01:40.279Z,100878.75
2022-10-06T03:04:11.998Z,100881.28
2022-10-06T03:06:39.070Z,100891.66
2022-10-06T03:09:09.042Z,100892.25
2022-10-06T03:11:41.186Z,100889.84
2022-10-06T03:14:08.654Z,100897.25
2022-10-06T03:16:42.718Z,100894.72
2022-10-06T03:19:13.072Z,100902.84
2022-10-06T03:21:43.970Z,100908.50
2022-10-06T03:24:11.673Z,100907.38
2022-10-06T03:26:44.036Z,100900.94
2022-10-06T03:29:12.349Z,100909.06
2022-10-06T03:31:40.679Z,100915.75
2022-10-06T03:34:07.797Z,100912.00
2022-10-06T03:36:36.308Z,100910.44
2022-10-06T03:39:06.244Z,100931.06
2022-10-06T03:41:37.845Z,100935.25
2022-10-06T03:44:07.556Z,100937.41
2022-10-06T03:46:37.069Z,100942.66
2022-10-06T03:49:05.201Z,100944.69
2022-10-06T03:51:40.100Z,100943.38
2022-10-06T03:54:12.885Z,100940.19
2022-10-06T03:56:42.254Z,100952.53
2022-10-06T03:59:13.684Z,100969.56
2022-10-06T04:01:45.978Z,100963.38
2022-10-06T04:04:14.479Z,100974.41
2022-10-06T04:06:44.774Z,100985.53
2022-10-06T04:09:15.599Z,100985.84
2022-10-06T04:11:45.866Z,100989.31
2022-10-06T04:14:16.376Z,100997.09
2022-10-06T04:16:50.464Z,100999.56
2022-10-06T04:19:18.686Z,100993.66
2022-10-06T04:21:47.898Z,101002.72
2022-10-06T04:24:18.632Z,101010.84
2022-10-06T04:26:52.455Z,101012.25
2022-10-06T04:29:19.430Z,101014.38
2022-10-06T04:31:47.024Z,101013.31
2022-10-06T04:34:13.794Z,101016.38
2022-10-06T04:36:43.026Z,101023.81
2022-10-06T04:39:12.832Z,101033.47
2022-10-06T04:41:42.815Z,101040.94
2022-10-06T04:44:10.309Z,101041.28
2022-10-06T04:46:43.110Z,101044.66
2022-10-06T04:49:18.573Z,101065.28
2022-10-06T04:51:49.392Z,101064.81
2022-10-06T04:54:16.627Z,101058.03
2022-10-06T04:56:43.387Z,101070.09
2022-10-06T05:07:17.801Z,101081.91
2022-10-06T05:12:25.727Z,101111.91
2022-10-06T05:14:52.516Z,101114.03
2022-10-06T05:17:21.853Z,101120.25
2022-10-06T05:25:10.332Z,101139.50
2022-10-06T05:27:37.029Z,101143.81
2022-10-06T05:30:04.189Z,101155.63
2022-10-06T05:32:35.813Z,101153.16
2022-10-06T05:37:48.967Z,101168.16
2022-10-06T06:10:01.787Z,101243.06
2022-10-06T06:58:51.571Z,101334.97
2022-10-06T07:01:23.163Z,101335.91
2022-10-06T07:03:59.486Z,101350.53
2022-10-06T07:45:29.476Z,101421.25
2022-10-06T07:48:02.544Z,101424.75
2022-10-06T08:15:13.668Z,101474.81
2022-10-06T08:17:41.344Z,101473.00
2022-10-06T08:20:13.064Z,101480.38
2022-10-06T08:22:41.440Z,101486.38
2022-10-06T08:25:10.870Z,101497.72
2022-10-06T08:27:44.815Z,101498.81
2022-10-06T08:30:15.532Z,101498.63
2022-10-06T08:32:43.324Z,101512.94
2022-10-06T08:35:11.452Z,101513.59
2022-10-06T08:37:38.296Z,101511.44
2022-10-06T08:40:08.122Z,101519.38
2022-10-06T08:42:49.187Z,101516.50
2022-10-06T08:45:38.851Z,101521.63
2022-10-06T08:48:28.763Z,101533.66
2022-10-06T08:51:05.976Z,101536.53
2022-10-06T08:53:59.074Z,101535.81
2022-10-06T08:57:08.628Z,101540.16
2022-10-06T08:59:36.850Z,101547.34
2022-10-06T09:02:49.002Z,101548.06
2022-10-06T09:05:26.701Z,101551.34
2022-10-06T09:08:47.541Z,101548.97
2022-10-06T09:11:46.758Z,101565.06
2022-10-06T09:14:28.727Z,101578.31
2022-10-06T09:17:06.734Z,101580.81
2022-10-06T09:20:07.162Z,101583.59
2022-10-06T09:22:36.675Z,101593.28
2022-10-06T09:25:35.997Z,101579.50
2022-10-06T09:28:05.163Z,101592.84
2022-10-06T09:30:40.379Z,101590.84
2022-10-06T09:33:52.322Z,101602.75
2022-10-06T09:36:20.389Z,101597.81
2022-10-06T09:39:36.542Z,101608.25
2022-10-06T09:42:23.451Z,101611.50
2022-10-06T09:45:25.422Z,101610.13
2022-10-06T09:47:59.349Z,101623.56
2022-10-06T09:50:31.142Z,101622.19
2022-10-06T09:53:37.605Z,101621.75
2022-10-06T09:56:20.572Z,101624.56
2022-10-06T09:59:39.816Z,101634.09
2022-10-06T10:02:42.989Z,101620.69
2022-10-06T10:05:31.828Z,101636.41
2022-10-06T10:08:20.023Z,101635.19
2022-10-06T10:10:47.714Z,101652.31
2022-10-06T10:13:43.271Z,101647.78
2022-10-06T10:16:19.600Z,101645.28
2022-10-06T10:18:55.325Z,101651.13
2022-10-06T10:21:34.566Z,101660.06
2022-10-06T10:24:16.867Z,101650.81
2022-10-06T10:27:24.798Z,101649.25
2022-10-06T10:30:25.536Z,101660.72
2022-10-06T10:33:05.232Z,101672.00
2022-10-06T10:35:50.675Z,101681.75
2022-10-06T10:38:25.384Z,101699.91
2022-10-06T10:41:14.562Z,101687.94
2022-10-06T10:44:30.612Z,101687.47
2022-10-06T10:47:35.325Z,101688.78
2022-10-06T10:50:47.800Z,101698.19
2022-10-06T10:53:28.359Z,101695.97
2022-10-06T10:55:56.848Z,101699.53
2022-10-06T10:58:38.775Z,101699.72
2022-10-06T11:01:35.180Z,101705.47
2022-10-06T11:04:16.834Z,101716.44
2022-10-06T11:07:09.419Z,101720.06
2022-10-06T11:10:02.437Z,101709.94
2022-10-06T11:12:52.209Z,101722.16
2022-10-06T11:16:17.482Z,101719.06
2022-10-06T11:19:24.949Z,101721.72
2022-10-06T11:22:14.927Z,101715.78
2022-10-06T11:24:57.607Z,101731.56
2022-10-06T11:28:39.600Z,101736.34
2022-10-06T11:31:41.119Z,101746.97
2022-10-06T11:34:12.767Z,101749.22
2022-10-06T11:37:13.337Z,101748.66
2022-10-06T11:40:16.730Z,101739.59
2022-10-06T11:42:55.788Z,101748.75
2022-10-06T11:46:01.952Z,101757.97
2022-10-06T11:48:35.895Z,101762.94
2022-10-06T11:51:24.725Z,101746.34
2022-10-06T11:53:56.508Z,101751.94
2022-10-06T11:56:39.605Z,101749.06
2022-10-06T11:59:34.089Z,101751.06
2022-10-06T12:02:03.955Z,101754.41
2022-10-06T12:04:30.843Z,101773.25
2022-10-06T12:07:00.298Z,101759.31
2022-10-06T12:09:31.387Z,101764.16
2022-10-06T12:12:19.148Z,101771.72
2022-10-06T12:18:21.978Z,101768.72
2022-10-06T12:21:11.670Z,101788.72
2022-10-06T12:24:19.795Z,101768.66
2022-10-06T12:27:33.722Z,101781.91
2022-10-06T12:30:18.138Z,101777.19
2022-10-06T12:32:57.794Z,101794.19
2022-10-06T12:35:40.226Z,101782.06
2022-10-06T12:38:41.441Z,101777.56
2022-10-06T12:41:14.624Z,101792.56
2022-10-06T12:43:57.233Z,101794.44
2022-10-06T12:46:44.196Z,101794.97
2022-10-06T12:49:45.840Z,101785.09
2022-10-06T12:52:53.778Z,101790.88
2022-10-06T12:56:00.589Z,101785.19
2022-10-06T12:58:33.874Z,101791.97
2022-10-06T13:01:11.827Z,101792.59
2022-10-06T13:03:39.790Z,101800.13
2022-10-06T13:06:09.450Z,101808.09
2022-10-06T13:08:47.739Z,101811.50
2022-10-06T13:11:27.353Z,101796.53
2022-10-06T13:14:07.150Z,101796.91
2022-10-06T13:16:41.008Z,101798.06
2022-10-06T13:19:22.600Z,101808.56
2022-10-06T13:21:50.160Z,101804.47
2022-10-06T13:24:26.797Z,101812.00
2022-10-06T13:26:57.191Z,101808.41
2022-10-06T13:29:26.470Z,101797.06
2022-10-06T13:31:56.835Z,101809.56
2022-10-06T13:34:43.378Z,101814.69
2022-10-06T13:37:15.790Z,101809.13
2022-10-06T13:39:42.804Z,101823.28
2022-10-06T13:42:22.040Z,101824.94
2022-10-06T13:45:03.884Z,101831.34
2022-10-06T13:47:31.958Z,101829.75
2022-10-06T13:50:20.470Z,101828.38
2022-10-06T13:52:50.671Z,101824.72
2022-10-06T13:55:32.612Z,101831.34
2022-10-06T13:58:05.216Z,101836.19
2022-10-06T14:01:01.899Z,101835.84
2022-10-06T14:03:38.005Z,101834.47
2022-10-06T14:06:26.347Z,101829.81
2022-10-06T14:09:11.589Z,101843.88
2022-10-06T14:11:39.141Z,101846.88
2022-10-06T14:14:17.874Z,101846.00
2022-10-06T14:16:53.393Z,101842.88
2022-10-06T14:19:37.332Z,101855.53
2022-10-06T14:22:26.596Z,101860.16
2022-10-06T14:24:53.800Z,101857.31
2022-10-06T14:27:33.445Z,101848.34
2022-10-06T14:30:00.842Z,101853.03
2022-10-06T14:32:30.446Z,101861.97
2022-10-06T14:34:57.142Z,101856.53
2022-10-06T14:37:23.928Z,101867.19
2022-10-06T14:39:57.039Z,101873.25
2022-10-06T14:42:30.135Z,101867.09
2022-10-06T14:44:57.865Z,101879.00
2022-10-06T14:47:24.891Z,101877.34
2022-10-06T14:49:52.850Z,101875.56
2022-10-06T14:52:19.545Z,101881.56
2022-10-06T14:54:49.234Z,101882.09
2022-10-06T14:57:20.449Z,101877.84
2022-10-06T14:59:51.594Z,101884.94
2022-10-06T15:02:21.241Z,101888.28
2022-10-06T15:04:48.083Z,101882.69
2022-10-06T15:07:33.745Z,101888.06
2022-10-06T15:10:00.512Z,101891.47
2022-10-06T15:12:31.714Z,101888.25
2022-10-06T15:15:00.681Z,101896.22
2022-10-06T15:17:28.462Z,101880.88
2022-10-06T15:19:55.105Z,101889.13
2022-10-06T15:22:22.049Z,101895.91
2022-10-06T15:24:51.362Z,101894.16
2022-10-06T15:27:36.971Z,101879.06
2022-10-06T15:30:04.446Z,101885.44
2022-10-06T15:32:31.129Z,101884.84
2022-10-06T15:34:58.210Z,101886.44
2022-10-06T15:37:25.234Z,101886.81
2022-10-06T15:39:54.921Z,101875.72
2022-10-06T15:42:24.223Z,101879.31
2022-10-06T15:44:51.752Z,101879.47
2022-10-06T15:47:20.872Z,101878.84
2022-10-06T15:49:49.292Z,101877.69
2022-10-06T15:52:17.511Z,101869.75
2022-10-06T15:54:46.697Z,101872.38
2022-10-06T15:57:20.300Z,101871.09
2022-10-06T15:59:47.980Z,101881.56
2022-10-06T16:02:18.030Z,101877.88
2022-10-06T16:05:04.603Z,101883.03
2022-10-06T16:07:34.942Z,101887.16
2022-10-06T16:10:01.609Z,101882.34
2022-10-06T16:12:28.604Z,101885.84
2022-10-06T16:14:55.424Z,101889.59
2022-10-06T16:17:22.054Z,101885.03
2022-10-06T16:19:48.969Z,101897.03
2022-10-06T16:22:19.307Z,101899.16
2022-10-06T16:24:52.989Z,101900.31
2022-10-06T16:27:19.653Z,101890.56
2022-10-06T16:29:46.466Z,101892.56
2022-10-06T16:32:13.163Z,101903.41
2022-10-06T16:34:39.839Z,101898.97
2022-10-06T16:37:06.535Z,101901.66
2022-10-06T16:39:33.210Z,101905.94
2022-10-06T16:41:59.872Z,101912.31
2022-10-06T16:44:27.288Z,101907.47
2022-10-06T16:46:54.513Z,101909.28
2022-10-06T16:49:24.761Z,101912.53
2022-10-06T16:51:52.208Z,101906.09
2022-10-06T16:54:19.002Z,101918.31
2022-10-06T16:56:55.216Z,101913.00
2022-10-06T16:59:28.866Z,101911.56
2022-10-06T17:01:55.921Z,101921.91
2022-10-06T17:04:25.621Z,101929.16
2022-10-06T17:06:58.779Z,101926.22
2022-10-06T17:09:31.088Z,101937.28
2022-10-06T17:12:02.287Z,101940.69
2022-10-06T17:14:35.749Z,101940.22
2022-10-06T17:17:03.134Z,101933.03
2022-10-06T17:19:31.134Z,101943.00
2022-10-06T17:22:00.019Z,101942.69
2022-10-06T17:24:29.911Z,101942.97
2022-10-06T17:26:58.495Z,101943.94
2022-10-06T17:29:28.827Z,101941.91
2022-10-06T17:32:00.137Z,101938.88
2022-10-06T17:34:33.397Z,101932.50
2022-10-06T17:37:02.738Z,101928.50
2022-10-06T17:39:30.178Z,101935.44
2022-10-06T17:41:58.690Z,101939.63
2022-10-06T17:44:27.830Z,101926.50
2022-10-06T17:47:00.841Z,101940.88
2022-10-06T17:49:32.817Z,101948.72
2022-10-06T17:52:03.417Z,101928.59
2022-10-06T17:54:33.551Z,101936.47
2022-10-06T17:57:01.171Z,101930.16
2022-10-06T17:59:32.089Z,101924.63
2022-10-06T18:02:03.157Z,101927.09
2022-10-06T18:04:31.868Z,101922.66
2022-10-06T18:06:59.864Z,101926.09
2022-10-06T18:09:30.546Z,101921.59
2022-10-06T18:12:00.255Z,101932.13
2022-10-06T18:14:33.420Z,101927.69
2022-10-06T18:17:06.647Z,101929.53
2022-10-06T18:19:37.148Z,101933.47
2022-10-06T18:22:23.426Z,101933.34
2022-10-06T18:25:09.009Z,101942.81
2022-10-06T18:28:03.979Z,101940.34
2022-10-06T18:30:49.173Z,101935.59
2022-10-06T18:36:15.077Z,101936.94
2022-10-06T18:38:54.173Z,101937.56
2022-10-06T18:41:29.955Z,101943.91
2022-10-06T18:44:05.097Z,101941.50
2022-10-06T18:47:03.314Z,101944.31
2022-10-06T18:49:33.832Z,101935.63
2022-10-06T18:52:19.197Z,101934.22
2022-10-06T18:55:12.359Z,101931.69
2022-10-06T18:57:52.302Z,101938.06
2022-10-06T19:00:22.765Z,101952.56
2022-10-06T19:03:03.718Z,101937.09
2022-10-06T19:05:39.666Z,101946.03
2022-10-06T19:08:09.347Z,101941.25
2022-10-06T19:10:57.735Z,101944.31
2022-10-06T19:13:25.387Z,101944.69
2022-10-06T19:15:52.766Z,101945.22
2022-10-06T19:18:20.638Z,101939.47
2022-10-06T19:20:52.302Z,101948.31
2022-10-06T19:23:19.331Z,101941.28
2022-10-06T19:26:06.236Z,101949.63
2022-10-06T19:28:36.797Z,101944.13
2022-10-06T19:31:30.407Z,101948.50
2022-10-06T19:34:12.413Z,101950.72
2022-10-06T19:36:43.034Z,101944.84
2022-10-06T19:39:56.725Z,101944.94
2022-10-06T19:42:51.681Z,101946.41
2022-10-06T19:45:25.352Z,101950.78
2022-10-06T19:48:00.612Z,101944.06
2022-10-06T19:50:29.378Z,101943.44
2022-10-06T19:53:08.719Z,101957.97
2022-10-06T19:55:49.010Z,101946.78
2022-10-06T19:58:23.775Z,101955.38
2022-10-06T20:00:54.211Z,101954.53
2022-10-06T20:03:24.567Z,101953.53
2022-10-06T20:05:59.566Z,101954.38
2022-10-06T20:08:27.581Z,101959.19
2022-10-06T20:11:45.864Z,101959.19
2022-10-06T20:14:24.660Z,101957.44
2022-10-06T20:16:59.433Z,101963.22
2022-10-06T20:19:32.205Z,101952.31
2022-10-06T20:22:22.028Z,101952.69
2022-10-06T20:24:56.084Z,101961.91
2022-10-06T20:27:28.501Z,101960.31
2022-10-06T20:30:00.666Z,101959.69
2022-10-06T20:32:30.787Z,101959.44
2022-10-06T20:34:58.644Z,101962.66
2022-10-06T20:37:26.731Z,101952.44
2022-10-06T20:40:27.828Z,101955.75
2022-10-06T20:42:55.136Z,101951.19
2022-10-06T20:45:25.954Z,101954.00
2022-10-06T20:47:55.060Z,101957.47
2022-10-06T20:50:21.961Z,101952.97
2022-10-06T20:52:49.185Z,101954.91
2022-10-06T20:55:18.884Z,101954.28
2022-10-06T20:57:49.063Z,101950.72
2022-10-06T21:00:24.111Z,101953.16
2022-10-06T21:02:51.392Z,101954.38
2022-10-06T21:05:20.846Z,101947.66
2022-10-06T21:07:49.037Z,101947.75
2022-10-06T21:10:25.454Z,101957.81
2022-10-06T21:12:52.816Z,101953.78
2022-10-06T21:15:23.447Z,101946.44
2022-10-06T21:17:50.634Z,101953.16
2022-10-06T21:20:31.266Z,101953.41
2022-10-06T21:23:07.041Z,101944.84
2022-10-06T21:25:38.277Z,101950.22
2022-10-06T21:28:11.805Z,101955.38
2022-10-06T21:30:39.003Z,101951.44
2022-10-06T21:33:06.228Z,101953.66
2022-10-06T21:35:33.343Z,101949.13
2022-10-06T21:38:00.585Z,101949.59
2022-10-06T21:40:31.299Z,101952.41
2022-10-06T21:43:00.572Z,101960.63
2022-10-06T21:45:33.022Z,101951.78
2022-10-06T21:48:00.527Z,101943.31
2022-10-06T21:50:30.274Z,101948.56
2022-10-06T21:52:57.778Z,101946.25
2022-10-06T21:55:27.472Z,101939.59
2022-10-06T21:57:55.067Z,101937.66
2022-10-06T22:00:22.497Z,101939.50
2022-10-06T22:02:49.649Z,101943.91
2022-10-06T22:05:20.904Z,101946.75
2022-10-06T22:07:50.197Z,101941.94
2022-10-06T22:10:17.473Z,101943.03
2022-10-06T22:12:49.412Z,101936.16
2022-10-06T22:15:23.842Z,101937.38
2022-10-06T22:17:53.779Z,101933.47
2022-10-06T22:20:21.011Z,101932.72
2022-10-06T22:22:52.055Z,101930.28
2022-10-06T22:25:19.214Z,101924.78
2022-10-06T22:27:52.586Z,101920.00
2022-10-06T22:30:22.148Z,101918.69
2022-10-06T22:32:49.187Z,101922.22
2022-10-06T22:35:18.371Z,101915.50
2022-10-06T22:37:45.375Z,101924.31
2022-10-06T22:40:12.560Z,101914.41
2022-10-06T22:42:39.214Z,101919.06
2022-10-06T22:45:08.979Z,101916.00
2022-10-06T22:47:35.740Z,101911.94
2022-10-06T22:50:02.505Z,101917.22
2022-10-06T22:52:29.149Z,101917.09
2022-10-06T22:54:55.784Z,101908.63
2022-10-06T22:57:22.536Z,101915.97
2022-10-06T22:59:49.225Z,101906.91
2022-10-06T23:02:16.120Z,101898.69
2022-10-06T23:04:42.847Z,101892.81
2022-10-06T23:07:09.554Z,101890.34
2022-10-06T23:09:36.650Z,101893.19
2022-10-06T23:12:03.440Z,101902.34
2022-10-06T23:14:32.917Z,101895.59
2022-10-06T23:16:59.658Z,101896.47
2022-10-06T23:19:26.382Z,101888.63
2022-10-06T23:21:53.038Z,101892.91
2022-10-06T23:24:19.736Z,101886.03
2022-10-06T23:26:47.056Z,101878.31
2022-10-06T23:29:13.788Z,101885.06
2022-10-06T23:31:40.647Z,101875.84
2022-10-06T23:34:12.898Z,101870.06
2022-10-06T23:36:45.017Z,101873.84
2022-10-06T23:39:11.890Z,101860.75
2022-10-06T23:41:38.714Z,101863.44
2022-10-06T23:44:05.314Z,101865.13
2022-10-06T23:46:31.981Z,101859.13
2022-10-06T23:48:58.859Z,101862.78
2022-10-06T23:51:25.640Z,101857.88
2022-10-06T23:53:52.706Z,101858.97
2022-10-06T23:56:20.762Z,101859.44
2022-10-06T23:58:48.271Z,101858.53
